sensor_id;sensor_type;location;lat;lon;timestamp;pressure;altitude;pressure_sealevel;temperature;humidity
50125;BME280;36023;48.670;6.184;2022-12-07T00:01:13;99218.69;;;15.20;42.61
50125;BME280;36023;48.670;6.184;2022-12-07T00:03:40;99216.97;;;15.19;42.61
50125;BME280;36023;48.670;6.184;2022-12-07T00:06:08;99220.44;;;15.19;42.33
50125;BME280;36023;48.670;6.184;2022-12-07T00:08:34;99217.84;;;15.19;42.48
50125;BME280;36023;48.670;6.184;2022-12-07T00:11:02;99223.13;;;15.18;42.53
50125;BME280;36023;48.670;6.184;2022-12-07T00:13:29;99228.31;;;15.18;42.53
50125;BME280;36023;48.670;6.184;2022-12-07T00:16:03;99236.16;;;15.18;42.41
50125;BME280;36023;48.670;6.184;2022-12-07T00:18:29;99230.94;;;15.18;42.54
50125;BME280;36023;48.670;6.184;2022-12-07T00:21:03;99224.84;;;15.17;42.53
50125;BME280;36023;48.670;6.184;2022-12-07T00:23:32;99231.81;;;15.17;42.42
50125;BME280;36023;48.670;6.184;2022-12-07T00:26:03;99232.72;;;15.16;42.48
50125;BME280;36023;48.670;6.184;2022-12-07T00:28:29;99226.66;;;15.15;42.55
50125;BME280;36023;48.670;6.184;2022-12-07T00:31:07;99226.66;;;15.15;42.50
50125;BME280;36023;48.670;6.184;2022-12-07T00:33:34;99217.13;;;15.14;42.51
50125;BME280;36023;48.670;6.184;2022-12-07T00:36:01;99219.75;;;15.14;42.38
50125;BME280;36023;48.670;6.184;2022-12-07T00:38:29;99221.50;;;15.14;42.43
50125;BME280;36023;48.670;6.184;2022-12-07T00:40:57;99220.66;;;15.13;42.46
50125;BME280;36023;48.670;6.184;2022-12-07T00:43:24;99221.50;;;15.14;42.42
50125;BME280;36023;48.670;6.184;2022-12-07T00:45:52;99217.19;;;15.13;42.31
50125;BME280;36023;48.670;6.184;2022-12-07T00:48:18;99215.50;;;15.12;42.20
50125;BME280;36023;48.670;6.184;2022-12-07T00:50:44;99216.34;;;15.12;42.43
50125;BME280;36023;48.670;6.184;2022-12-07T00:53:11;99215.50;;;15.12;42.47
50125;BME280;36023;48.670;6.184;2022-12-07T00:55:37;99213.75;;;15.12;42.37
50125;BME280;36023;48.670;6.184;2022-12-07T00:58:03;99211.19;;;15.11;42.43
50125;BME280;36023;48.670;6.184;2022-12-07T01:00:29;99212.97;;;15.10;42.30
50125;BME280;36023;48.670;6.184;2022-12-07T01:02:55;99206.84;;;15.10;42.43
50125;BME280;36023;48.670;6.184;2022-12-07T01:05:21;99209.47;;;15.10;42.45
50125;BME280;36023;48.670;6.184;2022-12-07T01:07:47;99207.78;;;15.09;42.32
50125;BME280;36023;48.670;6.184;2022-12-07T01:10:13;99208.63;;;15.09;42.37
50125;BME280;36023;48.670;6.184;2022-12-07T01:12:39;99202.56;;;15.09;42.42
50125;BME280;36023;48.670;6.184;2022-12-07T01:15:05;99196.53;;;15.07;42.32
50125;BME280;36023;48.670;6.184;2022-12-07T01:17:31;99186.97;;;15.07;42.00
50125;BME280;36023;48.670;6.184;2022-12-07T01:19:57;99186.97;;;15.07;42.28
50125;BME280;36023;48.670;6.184;2022-12-07T01:22:24;99186.13;;;15.07;42.27
50125;BME280;36023;48.670;6.184;2022-12-07T01:24:49;99184.41;;;15.05;42.41
50125;BME280;36023;48.670;6.184;2022-12-07T01:27:15;99194.84;;;15.05;42.40
50125;BME280;36023;48.670;6.184;2022-12-07T01:29:41;99186.19;;;15.05;42.34
50125;BME280;36023;48.670;6.184;2022-12-07T01:32:07;99198.38;;;15.04;42.29
50125;BME280;36023;48.670;6.184;2022-12-07T01:34:33;99196.66;;;15.03;42.34
50125;BME280;36023;48.670;6.184;2022-12-07T01:36:58;99202.75;;;15.04;42.30
50125;BME280;36023;48.670;6.184;2022-12-07T01:39:24;99209.72;;;15.03;42.28
50125;BME280;36023;48.670;6.184;2022-12-07T01:41:50;99210.63;;;15.02;42.26
50125;BME280;36023;48.670;6.184;2022-12-07T01:44:18;99210.56;;;15.04;42.25
50125;BME280;36023;48.670;6.184;2022-12-07T01:47:00;99211.47;;;15.03;42.21
50125;BME280;36023;48.670;6.184;2022-12-07T01:49:31;99211.47;;;15.03;42.20
50125;BME280;36023;48.670;6.184;2022-12-07T01:52:23;99214.09;;;15.03;42.32
50125;BME280;36023;48.670;6.184;2022-12-07T01:54:54;99221.00;;;15.04;42.32
50125;BME280;36023;48.670;6.184;2022-12-07T01:57:22;99225.41;;;15.02;42.28
50125;BME280;36023;48.670;6.184;2022-12-07T01:59:49;99234.97;;;15.01;42.13
50125;BME280;36023;48.670;6.184;2022-12-07T02:02:30;99224.53;;;15.01;42.35
50125;BME280;36023;48.670;6.184;2022-12-07T02:04:58;99228.06;;;15.00;42.10
50125;BME280;36023;48.670;6.184;2022-12-07T02:07:25;99224.53;;;15.01;42.14
50125;BME280;36023;48.670;6.184;2022-12-07T02:09:52;99235.88;;;15.00;42.13
50125;BME280;36023;48.670;6.184;2022-12-07T02:12:18;99235.84;;;15.02;42.22
50125;BME280;36023;48.670;6.184;2022-12-07T02:14:44;99233.28;;;15.00;42.18
50125;BME280;36023;48.670;6.184;2022-12-07T02:17:20;99229.81;;;15.00;42.07
50125;BME280;36023;48.670;6.184;2022-12-07T02:25:32;99231.56;;;14.99;42.09
50125;BME280;36023;48.670;6.184;2022-12-07T02:30:52;99222.06;;;14.98;42.02
50125;BME280;36023;48.670;6.184;2022-12-07T02:33:27;99222.06;;;14.98;42.08
50125;BME280;36023;48.670;6.184;2022-12-07T02:36:06;99217.75;;;14.97;42.02
50125;BME280;36023;48.670;6.184;2022-12-07T02:39:00;99213.38;;;14.98;42.07
50125;BME280;36023;48.670;6.184;2022-12-07T02:41:33;99210.84;;;14.96;41.94
50125;BME280;36023;48.670;6.184;2022-12-07T02:44:15;99203.00;;;14.96;41.90
50125;BME280;36023;48.670;6.184;2022-12-07T02:46:46;99205.63;;;14.96;41.91
50125;BME280;36023;48.670;6.184;2022-12-07T02:49:15;99203.00;;;14.96;41.98
50125;BME280;36023;48.670;6.184;2022-12-07T02:51:43;99205.72;;;14.93;41.85
50125;BME280;36023;48.670;6.184;2022-12-07T02:54:19;99207.44;;;14.94;41.92
50125;BME280;36023;48.670;6.184;2022-12-07T02:56:56;99206.56;;;14.94;41.82
50125;BME280;36023;48.670;6.184;2022-12-07T02:59:58;99199.63;;;14.94;41.78
50125;BME280;36023;48.670;6.184;2022-12-07T03:02:35;99205.72;;;14.93;41.89
50125;BME280;36023;48.670;6.184;2022-12-07T03:07:39;99197.88;;;14.93;41.90
50125;BME280;36023;48.670;6.184;2022-12-07T03:12:43;99191.88;;;14.91;41.74
50125;BME280;36023;48.670;6.184;2022-12-07T03:15:14;99183.22;;;14.91;41.63
50125;BME280;36023;48.670;6.184;2022-12-07T03:17:45;99189.28;;;14.91;41.70
50125;BME280;36023;48.670;6.184;2022-12-07T03:20:17;99185.81;;;14.91;41.66
50125;BME280;36023;48.670;6.184;2022-12-07T03:22:45;99181.50;;;14.90;41.72
50125;BME280;36023;48.670;6.184;2022-12-07T03:25:15;99180.66;;;14.89;41.64
50125;BME280;36023;48.670;6.184;2022-12-07T03:27:54;99189.34;;;14.90;41.51
50125;BME280;36023;48.670;6.184;2022-12-07T03:30:33;99183.28;;;14.89;41.65
50125;BME280;36023;48.670;6.184;2022-12-07T03:33:07;99187.63;;;14.89;41.43
50125;BME280;36023;48.670;6.184;2022-12-07T03:35:41;99192.00;;;14.88;41.57
50125;BME280;36023;48.670;6.184;2022-12-07T03:38:42;99185.94;;;14.88;41.47
50125;BME280;36023;48.670;6.184;2022-12-07T03:41:25;99179.88;;;14.87;41.58
50125;BME280;36023;48.670;6.184;2022-12-07T03:43:54;99186.84;;;14.87;41.53
50125;BME280;36023;48.670;6.184;2022-12-07T03:47:12;99184.25;;;14.87;41.53
50125;BME280;36023;48.670;6.184;2022-12-07T03:50:25;99173.84;;;14.85;41.40
50125;BME280;36023;48.670;6.184;2022-12-07T03:52:54;99173.84;;;14.85;41.34
50125;BME280;36023;48.670;6.184;2022-12-07T03:55:29;99163.41;;;14.85;41.43
50125;BME280;36023;48.670;6.184;2022-12-07T03:58:03;99164.31;;;14.84;41.24
50125;BME280;36023;48.670;6.184;2022-12-07T04:00:31;99173.06;;;14.83;41.34
50125;BME280;36023;48.670;6.184;2022-12-07T04:02:56;99167.84;;;14.83;41.32
50125;BME280;36023;48.670;6.184;2022-12-07T04:05:22;99160.03;;;14.83;41.31
50125;BME280;36023;48.670;6.184;2022-12-07T04:07:48;99162.63;;;14.83;41.32
50125;BME280;36023;48.670;6.184;2022-12-07T04:10:14;99160.88;;;14.84;41.14
50125;BME280;36023;48.670;6.184;2022-12-07T04:12:40;99157.41;;;14.83;41.29
50125;BME280;36023;48.670;6.184;2022-12-07T04:15:06;99152.19;;;14.83;41.32
50125;BME280;36023;48.670;6.184;2022-12-07T04:17:32;99149.59;;;14.83;41.31
50125;BME280;36023;48.670;6.184;2022-12-07T04:19:58;99152.19;;;14.83;41.18
50125;BME280;36023;48.670;6.184;2022-12-07T04:22:23;99149.66;;;14.82;41.17
50125;BME280;36023;48.670;6.184;2022-12-07T04:24:49;99156.56;;;14.83;41.32
50125;BME280;36023;48.670;6.184;2022-12-07T04:27:14;99161.78;;;14.83;41.27
50125;BME280;36023;48.670;6.184;2022-12-07T04:29:40;99156.56;;;14.83;41.23
50125;BME280;36023;48.670;6.184;2022-12-07T04:32:06;99157.47;;;14.82;41.24
50125;BME280;36023;48.670;6.184;2022-12-07T04:34:32;99157.47;;;14.82;41.19
50125;BME280;36023;48.670;6.184;2022-12-07T04:36:57;99159.22;;;14.81;41.21
50125;BME280;36023;48.670;6.184;2022-12-07T04:39:25;99163.53;;;14.82;41.19
50125;BME280;36023;48.670;6.184;2022-12-07T04:41:52;99157.47;;;14.82;41.11
50125;BME280;36023;48.670;6.184;2022-12-07T04:44:19;99159.22;;;14.81;41.22
50125;BME280;36023;48.670;6.184;2022-12-07T04:46:46;99166.16;;;14.82;41.14
50125;BME280;36023;48.670;6.184;2022-12-07T04:49:14;99160.94;;;14.82;41.20
50125;BME280;36023;48.670;6.184;2022-12-07T04:51:41;99156.63;;;14.81;41.12
50125;BME280;36023;48.670;6.184;2022-12-07T04:54:08;99159.22;;;14.81;41.06
50125;BME280;36023;48.670;6.184;2022-12-07T04:56:34;99163.59;;;14.81;41.07
50125;BME280;36023;48.670;6.184;2022-12-07T04:59:03;99159.22;;;14.81;41.19
50125;BME280;36023;48.670;6.184;2022-12-07T05:01:29;99168.81;;;14.81;41.09
50125;BME280;36023;48.670;6.184;2022-12-07T05:03:55;99166.19;;;14.81;41.02
50125;BME280;36023;48.670;6.184;2022-12-07T05:06:21;99161.84;;;14.81;41.18
50125;BME280;36023;48.670;6.184;2022-12-07T05:08:47;99170.56;;;14.80;41.01
50125;BME280;36023;48.670;6.184;2022-12-07T05:11:13;99173.25;;;14.79;41.31
50125;BME280;36023;48.670;6.184;2022-12-07T05:14:03;99172.31;;;14.80;41.05
50125;BME280;36023;48.670;6.184;2022-12-07T05:16:29;99174.03;;;14.81;41.32
50125;BME280;36023;48.670;6.184;2022-12-07T05:18:55;99178.97;;;14.88;41.45
50125;BME280;36023;48.670;6.184;2022-12-07T05:21:23;99167.34;;;14.97;41.51
50125;BME280;36023;48.670;6.184;2022-12-07T05:23:50;99167.97;;;15.03;41.52
50125;BME280;36023;48.670;6.184;2022-12-07T05:26:16;99166.00;;;15.10;41.59
50125;BME280;36023;48.670;6.184;2022-12-07T05:28:42;99169.22;;;15.17;41.54
50125;BME280;36023;48.670;6.184;2022-12-07T05:31:08;99164.75;;;15.20;41.42
50125;BME280;36023;48.670;6.184;2022-12-07T05:33:34;99166.28;;;15.26;41.48
50125;BME280;36023;48.670;6.184;2022-12-07T05:36:02;99172.16;;;15.31;41.39
50125;BME280;36023;48.670;6.184;2022-12-07T05:38:33;99164.22;;;15.34;41.30
50125;BME280;36023;48.670;6.184;2022-12-07T05:41:04;99164.88;;;15.39;41.33
50125;BME280;36023;48.670;6.184;2022-12-07T05:43:32;99163.03;;;15.43;41.22
50125;BME280;36023;48.670;6.184;2022-12-07T05:45:59;99166.41;;;15.45;41.20
50125;BME280;36023;48.670;6.184;2022-12-07T05:48:25;99161.03;;;15.49;41.25
50125;BME280;36023;48.670;6.184;2022-12-07T05:50:52;99161.81;;;15.51;41.17
50125;BME280;36023;48.670;6.184;2022-12-07T05:53:18;99161.69;;;15.54;41.19
50125;BME280;36023;48.670;6.184;2022-12-07T05:55:44;99165.09;;;15.56;41.08
50125;BME280;36023;48.670;6.184;2022-12-07T05:58:10;99159.88;;;15.56;41.01
50125;BME280;36023;48.670;6.184;2022-12-07T06:00:55;99161.44;;;15.60;40.97
50125;BME280;36023;48.670;6.184;2022-12-07T06:03:21;99163.19;;;15.62;40.97
50125;BME280;36023;48.670;6.184;2022-12-07T06:05:47;99161.34;;;15.64;41.02
50125;BME280;36023;48.670;6.184;2022-12-07T06:08:13;99159.56;;;15.66;40.79
50125;BME280;36023;48.670;6.184;2022-12-07T06:10:42;99160.34;;;15.68;40.87
50125;BME280;36023;48.670;6.184;2022-12-07T06:13:08;99155.91;;;15.70;40.91
50125;BME280;36023;48.670;6.184;2022-12-07T06:15:37;99161.88;;;15.73;40.90
50125;BME280;36023;48.670;6.184;2022-12-07T06:18:03;99166.09;;;15.76;41.04
50125;BME280;36023;48.670;6.184;2022-12-07T06:20:30;99167.69;;;15.80;41.01
50125;BME280;36023;48.670;6.184;2022-12-07T06:22:58;99162.34;;;15.83;41.24
50125;BME280;36023;48.670;6.184;2022-12-07T06:25:23;99162.22;;;15.86;40.96
50125;BME280;36023;48.670;6.184;2022-12-07T06:27:49;99168.25;;;15.88;41.38
50125;BME280;36023;48.670;6.184;2022-12-07T06:30:15;99169.94;;;15.89;41.17
50125;BME280;36023;48.670;6.184;2022-12-07T06:32:40;99173.47;;;15.88;41.27
50125;BME280;36023;48.670;6.184;2022-12-07T06:35:06;99168.28;;;15.86;41.38
50125;BME280;36023;48.670;6.184;2022-12-07T06:37:32;99170.03;;;15.86;41.56
50125;BME280;36023;48.670;6.184;2022-12-07T06:39:58;99164.88;;;15.84;41.47
50125;BME280;36023;48.670;6.184;2022-12-07T06:42:24;99171.88;;;15.84;41.61
50125;BME280;36023;48.670;6.184;2022-12-07T06:44:51;99165.88;;;15.82;41.55
50125;BME280;36023;48.670;6.184;2022-12-07T06:47:16;99163.31;;;15.80;41.76
50125;BME280;36023;48.670;6.184;2022-12-07T06:49:42;99172.97;;;15.78;41.83
50125;BME280;36023;48.670;6.184;2022-12-07T06:52:08;99169.63;;;15.75;41.86
50125;BME280;36023;48.670;6.184;2022-12-07T06:54:33;99170.56;;;15.74;41.83
50125;BME280;36023;48.670;6.184;2022-12-07T06:56:59;99173.25;;;15.71;41.89
50125;BME280;36023;48.670;6.184;2022-12-07T06:59:25;99172.63;;;15.66;41.80
50125;BME280;36023;48.670;6.184;2022-12-07T07:01:51;99172.72;;;15.63;41.82
50125;BME280;36023;48.670;6.184;2022-12-07T07:04:16;99175.50;;;15.58;41.77
50125;BME280;36023;48.670;6.184;2022-12-07T07:06:42;99172.97;;;15.55;41.82
50125;BME280;36023;48.670;6.184;2022-12-07T07:09:07;99175.78;;;15.50;42.07
50125;BME280;36023;48.670;6.184;2022-12-07T07:11:34;99179.41;;;15.46;41.80
50125;BME280;36023;48.670;6.184;2022-12-07T07:14:00;99178.56;;;15.46;41.55
50125;BME280;36023;48.670;6.184;2022-12-07T07:16:29;99173.47;;;15.43;41.62
50125;BME280;36023;48.670;6.184;2022-12-07T07:18:55;99182.22;;;15.42;41.57
50125;BME280;36023;48.670;6.184;2022-12-07T07:21:22;99181.47;;;15.38;41.46
50125;BME280;36023;48.670;6.184;2022-12-07T07:23:52;99183.28;;;15.36;41.47
50125;BME280;36023;48.670;6.184;2022-12-07T07:26:17;99180.81;;;15.33;41.56
50125;BME280;36023;48.670;6.184;2022-12-07T07:28:43;99176.47;;;15.32;41.53
50125;BME280;36023;48.670;6.184;2022-12-07T07:31:09;99180.91;;;15.30;41.48
50125;BME280;36023;48.670;6.184;2022-12-07T07:33:34;99181.81;;;15.29;41.30
50125;BME280;36023;48.670;6.184;2022-12-07T07:36:00;99171.50;;;15.26;41.50
50125;BME280;36023;48.670;6.184;2022-12-07T07:38:25;99180.22;;;15.25;41.40
50125;BME280;36023;48.670;6.184;2022-12-07T07:40:51;99173.28;;;15.24;41.36
50125;BME280;36023;48.670;6.184;2022-12-07T07:43:17;99165.59;;;15.21;41.34
50125;BME280;36023;48.670;6.184;2022-12-07T07:45:44;99169.13;;;15.20;41.47
50125;BME280;36023;48.670;6.184;2022-12-07T07:48:09;99167.44;;;15.17;41.50
50125;BME280;36023;48.670;6.184;2022-12-07T07:50:35;99169.22;;;15.17;41.43
50125;BME280;36023;48.670;6.184;2022-12-07T07:53:01;99171.03;;;15.15;41.70
50125;BME280;36023;48.670;6.184;2022-12-07T07:55:26;99178.91;;;15.13;41.45
50125;BME280;36023;48.670;6.184;2022-12-07T07:57:53;99172.00;;;15.12;41.52
50125;BME280;36023;48.670;6.184;2022-12-07T08:00:19;99171.16;;;15.12;41.40
50125;BME280;36023;48.670;6.184;2022-12-07T08:02:45;99178.13;;;15.11;41.51
50125;BME280;36023;48.670;6.184;2022-12-07T08:05:11;99170.41;;;15.08;41.52
50125;BME280;36023;48.670;6.184;2022-12-07T08:07:37;99180.84;;;15.08;41.66
50125;BME280;36023;48.670;6.184;2022-12-07T08:10:05;99181.75;;;15.07;41.47
50125;BME280;36023;48.670;6.184;2022-12-07T08:12:35;99190.47;;;15.06;41.51
50125;BME280;36023;48.670;6.184;2022-12-07T08:15:03;99190.53;;;15.04;41.54
50125;BME280;36023;48.670;6.184;2022-12-07T08:17:29;99194.06;;;15.03;41.63
50125;BME280;36023;48.670;6.184;2022-12-07T08:19:54;99190.63;;;15.01;41.53
50125;BME280;36023;48.670;6.184;2022-12-07T08:22:21;99198.47;;;15.01;41.64
50125;BME280;36023;48.670;6.184;2022-12-07T08:24:47;99200.28;;;14.99;41.60
50125;BME280;36023;48.670;6.184;2022-12-07T08:27:13;99202.03;;;14.99;41.67
50125;BME280;36023;48.670;6.184;2022-12-07T08:29:38;99205.56;;;14.98;41.53
50125;BME280;36023;48.670;6.184;2022-12-07T08:32:04;99199.50;;;14.97;41.69
50125;BME280;36023;48.670;6.184;2022-12-07T08:34:30;99205.63;;;14.96;41.66
50125;BME280;36023;48.670;6.184;2022-12-07T08:36:55;99209.13;;;14.95;41.62
50125;BME280;36023;48.670;6.184;2022-12-07T08:39:21;99209.13;;;14.95;41.61
50125;BME280;36023;48.670;6.184;2022-12-07T08:41:47;99204.84;;;14.94;41.66
50125;BME280;36023;48.670;6.184;2022-12-07T08:44:13;99197.84;;;14.95;41.70
50125;BME280;36023;48.670;6.184;2022-12-07T08:46:48;99197.00;;;14.94;41.54
50125;BME280;36023;48.670;6.184;2022-12-07T08:49:36;99195.28;;;14.93;41.78
50125;BME280;36023;48.670;6.184;2022-12-07T08:52:04;99195.28;;;14.93;41.75
50125;BME280;36023;48.670;6.184;2022-12-07T08:54:35;99193.59;;;14.92;41.44
50125;BME280;36023;48.670;6.184;2022-12-07T08:57:03;99186.66;;;14.91;41.71
50125;BME280;36023;48.670;6.184;2022-12-07T08:59:29;99183.28;;;14.89;41.60
50125;BME280;36023;48.670;6.184;2022-12-07T09:01:56;99190.19;;;14.90;41.69
50125;BME280;36023;48.670;6.184;2022-12-07T09:04:22;99193.59;;;14.92;41.64
50125;BME280;36023;48.670;6.184;2022-12-07T09:06:47;99193.63;;;14.91;41.67
50125;BME280;36023;48.670;6.184;2022-12-07T09:09:14;99192.72;;;14.92;41.85
50125;BME280;36023;48.670;6.184;2022-12-07T09:11:39;99190.19;;;14.90;41.61
50125;BME280;36023;48.670;6.184;2022-12-07T09:14:06;99191.88;;;14.91;41.74
50125;BME280;36023;48.670;6.184;2022-12-07T09:16:31;99197.09;;;14.91;41.71
50125;BME280;36023;48.670;6.184;2022-12-07T09:18:57;99198.00;;;14.90;41.78
50125;BME280;36023;48.670;6.184;2022-12-07T09:21:24;99195.47;;;14.89;41.74
50125;BME280;36023;48.670;6.184;2022-12-07T09:23:50;99203.28;;;14.89;41.84
50125;BME280;36023;48.670;6.184;2022-12-07T09:26:16;99204.19;;;14.88;41.74
50125;BME280;36023;48.670;6.184;2022-12-07T09:28:42;99200.75;;;14.87;41.65
50125;BME280;36023;48.670;6.184;2022-12-07T09:31:07;99206.81;;;14.86;41.71
50125;BME280;36023;48.670;6.184;2022-12-07T09:33:33;99202.53;;;14.85;41.63
50125;BME280;36023;48.670;6.184;2022-12-07T09:35:59;99205.13;;;14.85;41.63
50125;BME280;36023;48.670;6.184;2022-12-07T09:38:24;99195.63;;;14.84;41.60
50125;BME280;36023;48.670;6.184;2022-12-07T09:40:52;99198.22;;;14.84;41.73
50125;BME280;36023;48.670;6.184;2022-12-07T09:43:21;99205.19;;;14.84;41.62
50125;BME280;36023;48.670;6.184;2022-12-07T09:45:51;99199.13;;;14.83;41.69
50125;BME280;36023;48.670;6.184;2022-12-07T09:48:21;99199.13;;;14.83;41.64
50125;BME280;36023;48.670;6.184;2022-12-07T09:50:48;99195.72;;;14.81;41.61
50125;BME280;36023;48.670;6.184;2022-12-07T09:53:20;99191.44;;;14.80;41.67
50125;BME280;36023;48.670;6.184;2022-12-07T09:55:47;99196.59;;;14.82;41.54
50125;BME280;36023;48.670;6.184;2022-12-07T09:58:24;99191.50;;;14.79;41.57
50125;BME280;36023;48.670;6.184;2022-12-07T10:00:57;99192.34;;;14.79;41.75
50125;BME280;36023;48.670;6.184;2022-12-07T10:03:26;99187.13;;;14.79;41.52
50125;BME280;36023;48.670;6.184;2022-12-07T10:05:52;99187.13;;;14.79;41.57
50125;BME280;36023;48.670;6.184;2022-12-07T10:08:18;99185.41;;;14.78;41.51
50125;BME280;36023;48.670;6.184;2022-12-07T10:10:46;99187.16;;;14.77;41.64
50125;BME280;36023;48.670;6.184;2022-12-07T10:13:18;99181.09;;;14.77;41.64
50125;BME280;36023;48.670;6.184;2022-12-07T10:15:57;99185.44;;;14.76;41.54
50125;BME280;36023;48.670;6.184;2022-12-07T10:24:02;99182.91;;;14.75;41.57
50125;BME280;36023;48.670;6.184;2022-12-07T10:29:28;99176.91;;;14.73;41.52
50125;BME280;36023;48.670;6.184;2022-12-07T10:31:58;99172.53;;;14.73;41.67
50125;BME280;36023;48.670;6.184;2022-12-07T10:34:32;99176.00;;;14.74;41.51
50125;BME280;36023;48.670;6.184;2022-12-07T10:44:48;99162.16;;;14.72;41.63
50125;BME280;36023;48.670;6.184;2022-12-07T11:06:34;99139.72;;;14.68;41.44
50125;BME280;36023;48.670;6.184;2022-12-07T11:09:04;99135.34;;;14.68;41.38
50125;BME280;36023;48.670;6.184;2022-12-07T11:11:47;99139.66;;;14.69;41.56
50125;BME280;36023;48.670;6.184;2022-12-07T11:14:31;99133.59;;;14.69;41.56
50125;BME280;36023;48.670;6.184;2022-12-07T11:17:31;99128.44;;;14.67;41.47
50125;BME280;36023;48.670;6.184;2022-12-07T11:20:12;99123.28;;;14.66;41.48
50125;BME280;36023;48.670;6.184;2022-12-07T11:25:16;99124.97;;;14.67;41.49
50125;BME280;36023;48.670;6.184;2022-12-07T11:30:19;99130.19;;;14.67;41.27
50125;BME280;36023;48.670;6.184;2022-12-07T11:38:00;99122.25;;;14.70;41.29
50125;BME280;36023;48.670;6.184;2022-12-07T11:40:30;99117.03;;;14.70;41.41
50125;BME280;36023;48.670;6.184;2022-12-07T11:43:13;99110.94;;;14.71;41.38
50125;BME280;36023;48.670;6.184;2022-12-07T11:45:47;99111.78;;;14.71;41.30
50125;BME280;36023;48.670;6.184;2022-12-07T11:50:51;99101.25;;;14.74;41.40
50125;BME280;36023;48.670;6.184;2022-12-07T11:53:47;99096.03;;;14.74;41.44
50125;BME280;36023;48.670;6.184;2022-12-07T11:56:17;99086.50;;;14.73;41.30
50125;BME280;36023;48.670;6.184;2022-12-07T12:01:15;99087.34;;;14.74;41.32
50125;BME280;36023;48.670;6.184;2022-12-07T12:06:34;99083.91;;;14.73;41.14
50125;BME280;36023;48.670;6.184;2022-12-07T12:09:15;99075.22;;;14.73;41.17
50125;BME280;36023;48.670;6.184;2022-12-07T12:12:01;99086.50;;;14.73;41.28
50125;BME280;36023;48.670;6.184;2022-12-07T12:18:00;99080.50;;;14.71;41.11
50125;BME280;36023;48.670;6.184;2022-12-07T12:23:44;99075.31;;;14.71;41.12
50125;BME280;36023;48.670;6.184;2022-12-07T12:26:18;99068.34;;;14.70;41.13
50125;BME280;36023;48.670;6.184;2022-12-07T12:28:58;99065.81;;;14.69;41.19
50125;BME280;36023;48.670;6.184;2022-12-07T12:34:00;99067.56;;;14.68;41.12
50125;BME280;36023;48.670;6.184;2022-12-07T12:54:31;99044.31;;;14.64;41.17
50125;BME280;36023;48.670;6.184;2022-12-07T13:02:39;99054.72;;;14.64;41.21
50125;BME280;36023;48.670;6.184;2022-12-07T13:23:59;99035.66;;;14.62;41.31
50125;BME280;36023;48.670;6.184;2022-12-07T13:26:36;99026.16;;;14.61;41.19
50125;BME280;36023;48.670;6.184;2022-12-07T13:29:16;99026.16;;;14.61;41.25
50125;BME280;36023;48.670;6.184;2022-12-07T13:31:46;99031.38;;;14.61;41.21
50125;BME280;36023;48.670;6.184;2022-12-07T13:34:35;99034.81;;;14.61;41.32
50125;BME280;36023;48.670;6.184;2022-12-07T13:37:23;99021.78;;;14.61;41.42
50125;BME280;36023;48.670;6.184;2022-12-07T13:39:52;99027.00;;;14.61;41.37
50125;BME280;36023;48.670;6.184;2022-12-07T13:42:25;99017.41;;;14.62;41.37
50125;BME280;36023;48.670;6.184;2022-12-07T13:44:57;99018.22;;;14.64;41.36
50125;BME280;36023;48.670;6.184;2022-12-07T13:49:54;99017.31;;;14.65;41.31
50125;BME280;36023;48.670;6.184;2022-12-07T13:52:20;99014.72;;;14.65;41.29
50125;BME280;36023;48.670;6.184;2022-12-07T13:57:32;99013.75;;;14.67;41.36
50125;BME280;36023;48.670;6.184;2022-12-07T14:00:14;99007.63;;;14.68;41.30
50125;BME280;36023;48.670;6.184;2022-12-07T14:03:01;99011.06;;;14.69;41.26
50125;BME280;36023;48.670;6.184;2022-12-07T14:05:28;99015.44;;;14.68;41.29
50125;BME280;36023;48.670;6.184;2022-12-07T14:08:05;99012.84;;;14.68;41.24
50125;BME280;36023;48.670;6.184;2022-12-07T14:10:52;99013.69;;;14.69;41.25
50125;BME280;36023;48.670;6.184;2022-12-07T14:13:27;99011.97;;;14.68;41.28
50125;BME280;36023;48.670;6.184;2022-12-07T14:15:54;99007.63;;;14.68;41.18
50125;BME280;36023;48.670;6.184;2022-12-07T14:18:37;99004.16;;;14.68;41.26
50125;BME280;36023;48.670;6.184;2022-12-07T14:21:27;99013.69;;;14.69;41.10
50125;BME280;36023;48.670;6.184;2022-12-07T14:26:28;99014.53;;;14.69;41.12
50125;BME280;36023;48.670;6.184;2022-12-07T14:29:21;99005.06;;;14.67;41.13
50125;BME280;36023;48.670;6.184;2022-12-07T14:31:47;99005.06;;;14.67;41.12
50125;BME280;36023;48.670;6.184;2022-12-07T14:34:13;99010.28;;;14.67;41.02
50125;BME280;36023;48.670;6.184;2022-12-07T14:36:39;99002.47;;;14.67;41.16
50125;BME280;36023;48.670;6.184;2022-12-07T14:39:04;99007.69;;;14.67;41.14
50125;BME280;36023;48.670;6.184;2022-12-07T14:41:30;99013.81;;;14.66;41.30
50125;BME280;36023;48.670;6.184;2022-12-07T14:44:17;99011.19;;;14.66;41.23
50125;BME280;36023;48.670;6.184;2022-12-07T14:46:43;99004.28;;;14.65;41.15
50125;BME280;36023;48.670;6.184;2022-12-07T14:49:09;99012.13;;;14.65;41.23
50125;BME280;36023;48.670;6.184;2022-12-07T14:51:37;99011.25;;;14.64;40.99
50125;BME280;36023;48.670;6.184;2022-12-07T14:54:05;99010.41;;;14.64;41.11
50125;BME280;36023;48.670;6.184;2022-12-07T14:56:32;99000.00;;;14.64;41.22
50125;BME280;36023;48.670;6.184;2022-12-07T14:58:57;99006.06;;;14.64;41.29
50125;BME280;36023;48.670;6.184;2022-12-07T15:01:23;99003.47;;;14.63;41.17
50125;BME280;36023;48.670;6.184;2022-12-07T15:03:49;99006.97;;;14.63;41.18
50125;BME280;36023;48.670;6.184;2022-12-07T15:06:17;98996.53;;;14.63;41.20
50125;BME280;36023;48.670;6.184;2022-12-07T15:08:43;98996.47;;;14.65;41.41
50125;BME280;36023;48.670;6.184;2022-12-07T15:11:13;98995.38;;;14.70;41.55
50125;BME280;36023;48.670;6.184;2022-12-07T15:13:39;98998.59;;;14.77;41.66
50125;BME280;36023;48.670;6.184;2022-12-07T15:16:23;98998.31;;;14.85;41.84
50125;BME280;36023;48.670;6.184;2022-12-07T15:18:49;98994.56;;;14.92;41.64
50125;BME280;36023;48.670;6.184;2022-12-07T15:21:15;98996.00;;;14.99;41.68